createdAt,value
2023-05-19T00:00:37.327Z,50.62
2023-05-19T00:03:21.711Z,50.47
2023-05-19T00:05:49.274Z,50.45
2023-05-19T00:08:19.141Z,50.49
2023-05-19T00:10:46.936Z,50.50
2023-05-19T00:13:14.740Z,50.58
2023-05-19T00:15:42.253Z,50.47
2023-05-19T00:18:10.019Z,50.44
2023-05-19T00:20:38.033Z,50.60
2023-05-19T00:23:05.790Z,50.69
2023-05-19T00:25:33.040Z,50.51
2023-05-19T00:28:02.419Z,50.50
2023-05-19T00:30:30.901Z,50.56
2023-05-19T00:32:58.696Z,50.56
2023-05-19T00:35:26.025Z,50.58
2023-05-19T00:37:53.652Z,50.65
2023-05-19T00:40:22.343Z,50.66
2023-05-19T00:42:49.899Z,50.51
2023-05-19T00:45:17.224Z,50.57
2023-05-19T00:47:44.811Z,50.54
2023-05-19T00:50:12.185Z,50.45
2023-05-19T00:52:39.743Z,50.49
2023-05-19T00:55:09.031Z,50.59
2023-05-19T00:57:37.665Z,50.60
2023-05-19T01:00:05.773Z,50.53
2023-05-19T01:02:33.686Z,50.54
2023-05-19T01:05:02.020Z,50.53
2023-05-19T01:07:30.055Z,50.53
2023-05-19T01:09:57.981Z,50.62
2023-05-19T01:12:26.892Z,50.49
2023-05-19T01:14:54.647Z,50.61
2023-05-19T01:18:11.173Z,50.62
2023-05-19T01:20:50.804Z,50.44
2023-05-19T01:23:40.127Z,50.47
2023-05-19T01:26:27.650Z,50.60
2023-05-19T01:29:28.245Z,50.67
2023-05-19T01:31:59.245Z,50.60
2023-05-19T01:34:27.702Z,50.60
2023-05-19T01:36:55.991Z,50.50
2023-05-19T01:39:24.656Z,50.52
2023-05-19T01:41:53.996Z,50.56
2023-05-19T01:44:22.421Z,50.54
2023-05-19T01:46:50.119Z,50.54
2023-05-19T01:49:17.728Z,50.55
2023-05-19T01:51:45.124Z,50.51
2023-05-19T01:54:12.768Z,50.52
2023-05-19T01:57:11.243Z,50.41
2023-05-19T02:00:15.671Z,50.43
2023-05-19T02:03:10.702Z,50.63
2023-05-19T02:05:44.300Z,50.51
2023-05-19T02:08:17.242Z,50.52
2023-05-19T02:10:51.932Z,50.56
2023-05-19T02:13:21.471Z,50.60
2023-05-19T02:15:51.165Z,50.60
2023-05-19T02:18:20.403Z,50.47
2023-05-19T02:20:48.551Z,50.52
2023-05-19T02:23:15.883Z,50.44
2023-05-19T02:25:43.415Z,50.49
2023-05-19T02:28:10.752Z,50.53
2023-05-19T02:30:38.339Z,50.67
2023-05-19T02:33:06.568Z,50.43
2023-05-19T02:35:34.240Z,50.49
2023-05-19T02:38:01.507Z,50.45
2023-05-19T02:40:29.096Z,50.44
2023-05-19T02:42:56.393Z,50.65
2023-05-19T02:45:24.247Z,50.60
2023-05-19T02:47:51.612Z,50.60
2023-05-19T02:50:19.209Z,50.47
2023-05-19T02:52:46.574Z,50.51
2023-05-19T02:55:17.064Z,50.65
2023-05-19T02:57:44.468Z,50.63
2023-05-19T03:00:12.800Z,50.61
2023-05-19T03:02:41.411Z,50.59
2023-05-19T03:05:10.275Z,50.47
2023-05-19T03:07:37.633Z,50.50
2023-05-19T03:10:06.768Z,50.55
2023-05-19T03:12:34.321Z,50.49
2023-05-19T03:15:01.983Z,50.60
2023-05-19T03:17:33.804Z,50.63
2023-05-19T03:20:01.727Z,50.57
2023-05-19T03:22:29.038Z,50.50
2023-05-19T03:24:58.443Z,50.57
2023-05-19T03:27:25.806Z,50.50
2023-05-19T03:29:53.906Z,50.53
2023-05-19T03:32:21.359Z,50.64
2023-05-19T03:34:49.008Z,50.60
2023-05-19T03:37:16.290Z,50.64
2023-05-19T03:39:43.895Z,50.62
2023-05-19T03:42:11.365Z,50.59
2023-05-19T03:44:38.919Z,50.59
2023-05-19T03:47:06.282Z,50.50
2023-05-19T03:49:33.771Z,50.52
2023-05-19T03:52:03.264Z,50.58
2023-05-19T03:54:31.672Z,50.54
2023-05-19T03:56:59.189Z,50.60
2023-05-19T03:59:26.743Z,50.48
2023-05-19T04:01:54.419Z,50.57
2023-05-19T04:04:22.165Z,50.57
2023-05-19T04:06:49.691Z,50.45
2023-05-19T04:09:17.276Z,50.62
2023-05-19T04:11:44.549Z,50.50
2023-05-19T04:14:12.193Z,50.55
2023-05-19T04:16:40.253Z,50.37
2023-05-19T04:19:07.873Z,50.51
2023-05-19T04:21:35.236Z,50.53
2023-05-19T04:24:06.353Z,50.47
2023-05-19T04:26:34.418Z,50.44
2023-05-19T04:29:04.651Z,50.57
2023-05-19T04:31:32.028Z,50.44
2023-05-19T04:34:01.709Z,50.50
2023-05-19T04:36:28.972Z,50.51
2023-05-19T04:39:02.325Z,50.32
2023-05-19T04:41:29.650Z,50.58
2023-05-19T04:43:57.591Z,50.51
2023-05-19T04:46:26.174Z,50.51
2023-05-19T04:48:55.353Z,50.54
2023-05-19T04:51:29.751Z,50.61
2023-05-19T04:53:58.269Z,50.59
2023-05-19T04:56:27.360Z,50.56
2023-05-19T04:58:54.952Z,50.62
2023-05-19T05:01:26.387Z,50.67
2023-05-19T05:03:59.134Z,50.54
2023-05-19T05:06:28.554Z,50.50
2023-05-19T05:08:56.936Z,50.38
2023-05-19T05:11:24.494Z,50.67
2023-05-19T05:13:52.497Z,50.72
2023-05-19T05:16:20.071Z,50.93
2023-05-19T05:18:48.110Z,50.69
2023-05-19T05:21:15.872Z,50.99
2023-05-19T05:23:43.794Z,51.07
2023-05-19T05:26:19.876Z,51.10
2023-05-19T05:28:47.488Z,51.08
2023-05-19T05:31:15.192Z,51.20
2023-05-19T05:33:43.610Z,51.22
2023-05-19T05:36:11.006Z,51.35
2023-05-19T05:38:38.518Z,51.35
2023-05-19T05:41:05.876Z,51.19
2023-05-19T05:43:33.481Z,51.37
2023-05-19T05:46:00.977Z,51.31
2023-05-19T05:48:29.109Z,51.25
2023-05-19T05:50:57.160Z,51.40
2023-05-19T05:53:26.750Z,51.33
2023-05-19T05:55:54.377Z,51.32
2023-05-19T05:58:22.109Z,51.38
2023-05-19T06:00:51.532Z,51.50
2023-05-19T06:03:22.038Z,51.25
2023-05-19T06:05:49.465Z,51.34
2023-05-19T06:08:17.855Z,51.24
2023-05-19T06:10:47.358Z,51.15
2023-05-19T06:13:17.883Z,51.16
2023-05-19T06:15:45.288Z,51.25
2023-05-19T06:18:12.867Z,51.27
2023-05-19T06:20:40.205Z,51.26
2023-05-19T06:23:07.951Z,51.34
2023-05-19T06:25:35.676Z,51.14
2023-05-19T06:28:03.560Z,51.15
2023-05-19T06:30:31.049Z,51.17
2023-05-19T06:32:58.762Z,51.40
2023-05-19T06:35:26.126Z,51.23
2023-05-19T06:37:55.703Z,51.31
2023-05-19T06:40:23.473Z,51.30
2023-05-19T06:42:51.001Z,51.18
2023-05-19T06:45:21.808Z,51.04
2023-05-19T06:47:49.404Z,51.04
2023-05-19T06:50:16.887Z,51.25
2023-05-19T06:52:44.447Z,51.20
2023-05-19T06:55:11.864Z,51.17
2023-05-19T06:57:39.474Z,51.14
2023-05-19T07:00:10.390Z,51.23
2023-05-19T07:02:39.091Z,51.14
2023-05-19T07:05:06.585Z,51.13
2023-05-19T07:07:34.177Z,51.17
2023-05-19T07:10:01.524Z,51.07
2023-05-19T07:12:29.126Z,51.08
2023-05-19T07:14:56.570Z,51.08
2023-05-19T07:17:24.168Z,51.00
2023-05-19T07:19:51.531Z,51.04
2023-05-19T07:22:19.102Z,51.14
2023-05-19T07:24:46.475Z,50.96
2023-05-19T07:27:14.600Z,51.15
2023-05-19T07:29:41.892Z,50.93
2023-05-19T07:32:09.500Z,51.00
2023-05-19T07:34:37.645Z,51.20
2023-05-19T07:37:05.243Z,51.10
2023-05-19T07:39:33.991Z,51.14
2023-05-19T07:42:01.952Z,51.11
2023-05-19T07:44:31.383Z,51.00
2023-05-19T07:46:59.126Z,51.03
2023-05-19T07:49:26.565Z,50.99
2023-05-19T07:51:54.460Z,50.93
2023-05-19T07:54:21.840Z,51.04
2023-05-19T07:56:49.482Z,51.01
2023-05-19T07:59:16.804Z,50.90
2023-05-19T08:01:44.455Z,51.08
2023-05-19T08:04:13.112Z,50.99
2023-05-19T08:06:42.784Z,51.03
2023-05-19T08:09:10.868Z,50.86
2023-05-19T08:11:38.440Z,50.94
2023-05-19T08:14:05.762Z,50.80
2023-05-19T08:16:33.292Z,50.77
2023-05-19T08:19:02.714Z,50.91
2023-05-19T08:21:31.312Z,50.84
2023-05-19T08:23:58.601Z,50.88
2023-05-19T08:26:26.351Z,50.89
2023-05-19T08:28:53.684Z,50.91
2023-05-19T08:31:22.596Z,50.74
2023-05-19T08:33:49.891Z,50.63
2023-05-19T08:36:17.457Z,50.87
2023-05-19T08:38:44.911Z,50.93
2023-05-19T08:41:12.421Z,50.90
2023-05-19T08:43:40.151Z,50.79
2023-05-19T08:46:08.353Z,50.77
2023-05-19T08:48:40.722Z,50.77
2023-05-19T08:51:18.329Z,50.83
2023-05-19T08:53:50.272Z,50.76
2023-05-19T08:56:25.262Z,50.75
2023-05-19T08:58:53.094Z,50.77
2023-05-19T09:01:22.572Z,50.70
2023-05-19T09:03:50.285Z,50.73
2023-05-19T09:06:18.294Z,50.75
2023-05-19T09:08:47.042Z,50.77
2023-05-19T09:11:14.795Z,50.77
2023-05-19T09:13:42.219Z,50.70
2023-05-19T09:16:10.904Z,50.58
2023-05-19T09:18:40.783Z,50.62
2023-05-19T09:21:10.251Z,50.71
2023-05-19T09:23:37.551Z,50.75
2023-05-19T09:26:07.732Z,50.63
2023-05-19T09:28:37.907Z,50.57
2023-05-19T09:31:11.151Z,50.65
2023-05-19T09:33:43.715Z,50.56
2023-05-19T09:36:14.127Z,50.58
2023-05-19T09:38:41.722Z,50.69
2023-05-19T09:41:09.807Z,50.52
2023-05-19T09:43:37.091Z,50.65
2023-05-19T09:46:10.530Z,50.57
2023-05-19T09:48:39.315Z,50.43
2023-05-19T09:51:10.688Z,50.51
2023-05-19T09:53:39.029Z,50.50
2023-05-19T09:56:09.659Z,50.61
2023-05-19T09:58:37.416Z,50.55
2023-05-19T10:01:05.614Z,50.57
2023-05-19T10:03:33.979Z,50.48
2023-05-19T10:06:03.979Z,50.52
2023-05-19T10:08:32.788Z,50.57
2023-05-19T10:11:01.105Z,50.45
2023-05-19T10:13:29.959Z,50.47
2023-05-19T10:15:59.984Z,50.47
2023-05-19T10:18:29.585Z,50.33
2023-05-19T10:20:58.589Z,50.41
2023-05-19T10:23:26.506Z,50.24
2023-05-19T10:25:58.420Z,50.31
2023-05-19T10:28:34.790Z,50.42
2023-05-19T10:31:06.711Z,50.32
2023-05-19T10:33:55.285Z,50.24
2023-05-19T10:36:32.662Z,50.35
2023-05-19T10:39:25.519Z,50.35
2023-05-19T10:42:01.776Z,50.37
2023-05-19T10:45:10.170Z,50.33
2023-05-19T10:47:37.886Z,50.17
2023-05-19T10:50:08.060Z,50.31
2023-05-19T10:52:40.275Z,50.27
2023-05-19T10:55:10.041Z,50.07
2023-05-19T10:57:37.775Z,50.20
2023-05-19T11:00:28.766Z,50.26
2023-05-19T11:03:13.714Z,50.24
2023-05-19T11:05:41.689Z,50.13
2023-05-19T11:08:11.483Z,50.03
2023-05-19T11:10:39.528Z,50.20
2023-05-19T11:13:07.131Z,50.08
2023-05-19T11:15:37.230Z,50.29
2023-05-19T11:18:05.026Z,50.04
2023-05-19T11:20:34.929Z,50.04
2023-05-19T11:23:07.294Z,50.09
2023-05-19T11:25:55.846Z,50.03
2023-05-19T11:28:28.121Z,50.07
2023-05-19T11:30:57.810Z,50.09
2023-05-19T11:33:29.088Z,49.92
2023-05-19T11:35:59.867Z,49.96
2023-05-19T11:38:29.963Z,49.94
2023-05-19T11:40:57.513Z,50.13
2023-05-19T11:43:26.102Z,49.97
2023-05-19T11:45:55.124Z,49.90
2023-05-19T11:48:23.098Z,50.00
2023-05-19T11:50:51.038Z,49.62
2023-05-19T11:53:19.811Z,50.01
2023-05-19T11:55:48.214Z,49.89
2023-05-19T11:58:17.326Z,49.88
2023-05-19T12:00:47.260Z,49.89
2023-05-19T12:03:15.056Z,49.83
2023-05-19T12:05:48.246Z,49.93
2023-05-19T12:08:19.925Z,49.77
2023-05-19T12:10:53.198Z,49.84
2023-05-19T12:13:22.678Z,49.79
2023-05-19T12:15:53.531Z,49.80
2023-05-19T12:18:21.642Z,49.89
2023-05-19T12:20:49.211Z,49.78
2023-05-19T12:23:17.011Z,49.85
2023-05-19T12:25:44.391Z,49.77
2023-05-19T12:28:12.198Z,49.77
2023-05-19T12:30:39.604Z,49.80
2023-05-19T12:33:08.616Z,49.91
2023-05-19T12:35:37.692Z,49.77
2023-05-19T12:38:06.832Z,49.87
2023-05-19T12:40:36.006Z,49.74
2023-05-19T12:43:04.303Z,49.86
2023-05-19T12:45:36.055Z,49.86
2023-05-19T12:48:12.266Z,49.76
2023-05-19T12:50:39.996Z,49.79
2023-05-19T12:53:14.986Z,49.76
2023-05-19T12:55:44.362Z,49.90
2023-05-19T12:58:12.840Z,49.77
2023-05-19T13:00:45.706Z,49.87
2023-05-19T13:03:20.620Z,49.79
2023-05-19T13:05:50.704Z,49.79
2023-05-19T13:08:21.605Z,49.99
2023-05-19T13:10:49.661Z,49.84
2023-05-19T13:13:17.889Z,49.73
2023-05-19T13:15:48.589Z,49.77
2023-05-19T13:18:17.130Z,49.60
2023-05-19T13:20:45.406Z,49.65
2023-05-19T13:23:14.276Z,49.77
2023-05-19T13:25:42.104Z,49.70
2023-05-19T13:28:10.469Z,49.82
2023-05-19T13:30:39.563Z,49.67
2023-05-19T13:33:08.165Z,49.74
2023-05-19T13:35:38.975Z,49.70
2023-05-19T13:38:09.818Z,49.61
2023-05-19T13:40:39.481Z,49.59
2023-05-19T13:43:07.715Z,49.55
2023-05-19T13:45:35.374Z,49.70
2023-05-19T13:48:03.396Z,49.81
2023-05-19T13:50:31.320Z,49.75
2023-05-19T13:52:59.079Z,49.67
2023-05-19T13:55:27.452Z,49.76
2023-05-19T13:57:55.151Z,49.62
2023-05-19T14:00:22.780Z,49.74
2023-05-19T14:02:50.373Z,49.74
2023-05-19T14:05:17.688Z,49.70
2023-05-19T14:07:45.306Z,49.50
2023-05-19T14:10:12.638Z,49.64
2023-05-19T14:12:55.247Z,49.67
2023-05-19T14:15:27.488Z,49.66
2023-05-19T14:17:55.082Z,49.64
2023-05-19T14:20:22.672Z,49.77
2023-05-19T14:22:50.203Z,49.80
2023-05-19T14:25:17.945Z,49.62
2023-05-19T14:27:45.758Z,49.58
2023-05-19T14:30:13.278Z,49.64
2023-05-19T14:32:41.100Z,49.60
2023-05-19T14:35:08.679Z,49.68
2023-05-19T14:37:36.245Z,49.72
2023-05-19T14:40:04.528Z,49.77
2023-05-19T14:42:32.333Z,49.62
2023-05-19T14:44:59.622Z,49.78
2023-05-19T14:47:27.554Z,49.75
2023-05-19T14:49:54.979Z,49.61
2023-05-19T14:52:22.831Z,49.75
2023-05-19T14:54:50.657Z,49.79
2023-05-19T14:57:18.177Z,49.66
2023-05-19T14:59:45.660Z,49.75
2023-05-19T15:02:13.295Z,49.79
2023-05-19T15:04:40.588Z,49.80
2023-05-19T15:07:10.743Z,49.83
2023-05-19T15:09:38.640Z,49.96
2023-05-19T15:12:06.710Z,49.86
2023-05-19T15:14:34.595Z,49.90
2023-05-19T15:17:02.185Z,49.91
2023-05-19T15:19:29.600Z,49.81
2023-05-19T15:21:57.325Z,50.02
2023-05-19T15:24:24.587Z,49.93
2023-05-19T15:26:52.427Z,50.07
2023-05-19T15:29:19.811Z,49.97
2023-05-19T15:31:51.384Z,49.88
2023-05-19T15:34:19.822Z,50.04
2023-05-19T15:36:47.545Z,50.12
2023-05-19T15:39:15.002Z,50.19
2023-05-19T15:41:42.656Z,50.12
2023-05-19T15:44:10.453Z,50.19
2023-05-19T15:46:38.617Z,50.09
2023-05-19T15:49:06.239Z,49.96
2023-05-19T15:51:34.357Z,50.15
2023-05-19T15:54:01.645Z,50.33
2023-05-19T15:56:29.307Z,50.11
2023-05-19T15:58:56.624Z,50.21
2023-05-19T16:01:24.239Z,50.17
2023-05-19T16:03:51.781Z,50.13
2023-05-19T16:06:19.508Z,50.30
2023-05-19T16:08:46.899Z,50.19
2023-05-19T16:11:15.697Z,50.26
2023-05-19T16:13:43.058Z,50.46
2023-05-19T16:16:10.664Z,50.27
2023-05-19T16:18:38.311Z,50.44
2023-05-19T16:21:06.384Z,50.38
2023-05-19T16:23:33.799Z,50.42
2023-05-19T16:26:01.530Z,50.47
2023-05-19T16:28:28.950Z,50.41
2023-05-19T16:30:59.225Z,50.55
2023-05-19T16:33:27.260Z,50.49
2023-05-19T16:35:54.920Z,50.57
2023-05-19T16:38:22.278Z,50.54
2023-05-19T16:40:50.105Z,50.35
2023-05-19T16:43:17.469Z,50.52
2023-05-19T16:45:45.041Z,50.42
2023-05-19T16:48:12.618Z,50.39
2023-05-19T16:50:40.734Z,50.38
2023-05-19T16:53:08.371Z,50.46
2023-05-19T16:55:35.957Z,50.48
2023-05-19T16:58:03.320Z,50.43
2023-05-19T17:00:31.189Z,50.39
2023-05-19T17:02:58.672Z,50.52
2023-05-19T17:05:27.211Z,50.38
2023-05-19T17:07:54.581Z,50.34
2023-05-19T17:10:22.198Z,50.39
2023-05-19T17:12:49.509Z,50.48
2023-05-19T17:15:17.080Z,50.51
2023-05-19T17:17:44.497Z,50.41
2023-05-19T17:20:13.915Z,50.38
2023-05-19T17:22:41.227Z,50.33
2023-05-19T17:25:09.414Z,50.45
2023-05-19T17:27:36.713Z,50.22
2023-05-19T17:30:04.702Z,50.31
2023-05-19T17:32:35.772Z,50.34
2023-05-19T17:35:05.390Z,50.42
2023-05-19T17:37:33.259Z,50.43
2023-05-19T17:40:01.167Z,50.45
2023-05-19T17:42:29.172Z,50.38
2023-05-19T17:44:56.770Z,50.44
2023-05-19T17:47:24.231Z,50.49
2023-05-19T17:49:53.064Z,50.33
2023-05-19T17:52:21.634Z,50.46
2023-05-19T17:54:50.454Z,50.41
2023-05-19T17:57:18.529Z,50.24
2023-05-19T17:59:46.472Z,50.27
2023-05-19T18:02:15.154Z,50.41
2023-05-19T18:04:43.698Z,50.35
2023-05-19T18:07:12.071Z,50.49
2023-05-19T18:09:48.215Z,50.51
2023-05-19T18:12:15.716Z,50.46
2023-05-19T18:14:43.520Z,50.60
2023-05-19T18:17:10.833Z,50.70
2023-05-19T18:19:38.366Z,50.66
2023-05-19T18:22:05.721Z,50.78
2023-05-19T18:24:33.420Z,50.73
2023-05-19T18:27:01.656Z,50.67
2023-05-19T18:29:29.232Z,50.88
2023-05-19T18:31:56.929Z,51.03
2023-05-19T18:34:24.491Z,51.12
2023-05-19T18:36:52.284Z,51.16
2023-05-19T18:39:19.900Z,51.40
2023-05-19T18:41:47.598Z,51.46
2023-05-19T18:44:15.479Z,51.50
2023-05-19T18:46:42.778Z,51.48
2023-05-19T18:49:11.837Z,51.60
2023-05-19T18:51:39.553Z,51.66
2023-05-19T18:54:09.721Z,51.60
2023-05-19T18:56:44.294Z,51.57
2023-05-19T18:59:11.938Z,51.80
2023-05-19T19:01:39.303Z,51.60
2023-05-19T19:04:07.142Z,51.59
2023-05-19T19:06:34.573Z,51.72
2023-05-19T19:09:02.334Z,51.79
2023-05-19T19:11:29.728Z,51.94
2023-05-19T19:13:57.414Z,51.80
2023-05-19T19:16:24.734Z,51.83
2023-05-19T19:18:52.905Z,51.83
2023-05-19T19:21:22.820Z,52.00
2023-05-19T19:23:51.922Z,51.88
2023-05-19T19:26:19.300Z,52.04
2023-05-19T19:28:46.862Z,51.94
2023-05-19T19:31:14.468Z,51.96
2023-05-19T19:33:43.456Z,51.97
2023-05-19T19:36:11.643Z,51.85
2023-05-19T19:38:39.589Z,52.07
2023-05-19T19:41:06.921Z,51.99
2023-05-19T19:43:34.655Z,51.98
2023-05-19T19:46:04.364Z,51.81
2023-05-19T19:48:32.334Z,51.83
2023-05-19T19:50:59.654Z,51.99
2023-05-19T19:53:27.250Z,51.99
2023-05-19T19:55:58.601Z,51.97
2023-05-19T19:58:27.484Z,51.98
2023-05-19T20:01:03.153Z,51.99
2023-05-19T20:03:33.170Z,52.01
2023-05-19T20:06:01.120Z,51.96
2023-05-19T20:08:28.852Z,52.00
2023-05-19T20:10:56.314Z,51.94
2023-05-19T20:13:24.417Z,52.04
2023-05-19T20:15:51.771Z,51.91
2023-05-19T20:18:19.495Z,52.07
2023-05-19T20:20:46.915Z,52.13
2023-05-19T20:23:16.177Z,52.07
2023-05-19T20:25:57.888Z,52.05
2023-05-19T20:28:30.590Z,52.09
2023-05-19T20:30:57.821Z,51.98
2023-05-19T20:33:25.546Z,52.02
2023-05-19T20:35:52.840Z,52.16
2023-05-19T20:38:20.341Z,52.06
2023-05-19T20:40:47.916Z,52.00
2023-05-19T20:43:15.802Z,52.15
2023-05-19T20:45:44.128Z,51.96
2023-05-19T20:48:12.191Z,51.99
2023-05-19T20:50:39.996Z,52.11
2023-05-19T20:53:07.627Z,52.09
2023-05-19T20:55:37.864Z,51.96
2023-05-19T20:58:05.478Z,51.91
2023-05-19T21:00:33.184Z,51.98
2023-05-19T21:03:01.493Z,52.15
2023-05-19T21:05:29.120Z,52.21
2023-05-19T21:07:56.778Z,51.99
2023-05-19T21:10:24.534Z,52.00
2023-05-19T21:12:52.277Z,52.10
2023-05-19T21:15:19.602Z,51.97
2023-05-19T21:17:47.241Z,52.15
2023-05-19T21:20:14.582Z,52.09
2023-05-19T21:22:42.182Z,52.04
2023-05-19T21:25:09.614Z,51.93
2023-05-19T21:27:39.403Z,52.09
2023-05-19T21:30:07.333Z,52.05
2023-05-19T21:32:35.123Z,52.02
2023-05-19T21:35:02.433Z,52.08
2023-05-19T21:37:31.204Z,52.18
2023-05-19T21:39:58.585Z,52.08
2023-05-19T21:42:26.189Z,52.13
2023-05-19T21:44:53.515Z,52.11
2023-05-19T21:47:21.106Z,52.11
2023-05-19T21:49:48.404Z,52.19
2023-05-19T21:52:16.103Z,52.14
2023-05-19T21:54:43.386Z,52.08
2023-05-19T21:57:12.442Z,52.09
2023-05-19T21:59:39.866Z,52.18
2023-05-19T22:02:07.557Z,52.15
2023-05-19T22:04:34.930Z,52.06
2023-05-19T22:07:02.591Z,52.16
2023-05-19T22:09:29.933Z,52.17
2023-05-19T22:11:57.446Z,52.04
2023-05-19T22:14:24.761Z,52.07
2023-05-19T22:16:52.376Z,52.23
2023-05-19T22:19:20.025Z,52.02
2023-05-19T22:21:48.279Z,52.18
2023-05-19T22:24:16.101Z,52.13
2023-05-19T22:26:43.972Z,52.01
2023-05-19T22:29:15.105Z,52.15
2023-05-19T22:31:42.723Z,52.05
2023-05-19T22:34:12.461Z,52.03
2023-05-19T22:36:41.254Z,51.96
2023-05-19T22:39:08.521Z,52.01
2023-05-19T22:41:36.228Z,52.21
2023-05-19T22:44:03.540Z,52.01
2023-05-19T22:46:31.150Z,52.07
2023-05-19T22:48:58.435Z,52.14
2023-05-19T22:51:26.205Z,52.06
2023-05-19T22:53:53.420Z,52.00
2023-05-19T22:56:21.052Z,52.30
2023-05-19T22:58:48.390Z,52.15
2023-05-19T23:01:17.076Z,52.22
2023-05-19T23:03:45.007Z,52.15
2023-05-19T23:06:12.566Z,52.07
2023-05-19T23:08:39.885Z,52.09
2023-05-19T23:11:07.937Z,52.06
2023-05-19T23:13:35.277Z,52.10
2023-05-19T23:16:04.371Z,52.02
2023-05-19T23:18:36.104Z,52.03
2023-05-19T23:21:03.618Z,52.28
2023-05-19T23:23:30.900Z,51.99
2023-05-19T23:25:58.442Z,52.19
2023-05-19T23:28:25.880Z,52.15
2023-05-19T23:30:54.226Z,52.09
2023-05-19T23:33:21.929Z,52.15
2023-05-19T23:35:49.642Z,52.09
2023-05-19T23:38:16.969Z,52.02
2023-05-19T23:40:44.510Z,52.30
2023-05-19T23:43:11.767Z,52.06
2023-05-19T23:45:39.282Z,52.01
2023-05-19T23:48:06.660Z,52.12
2023-05-19T23:50:34.447Z,52.17
2023-05-19T23:53:01.947Z,52.11
2023-05-19T23:55:29.593Z,52.00
2023-05-19T23:57:56.858Z,52.12
